Latest Weather Observations for Moranbah Airport

IDQ60801

Issued at 5:32 am EST Thursday 30 July 2015 (issued every 30 minutes, with the page automatically refreshed every 10 minutes)

About weather observations | Map of weather stations | Latest weather observations for QLD | Other Formats
Station Details ID: 034035 Name: MORANBAH AIRPORT Lat: -22.06 Lon: 148.08 Height: 232.2 m
Data from the previous 72 hours. | See also: Recent months at Moranbah Airport
Date/Time
EST
Temp
°C
App
Temp
°C
Dew
Point
Rel
Hum
%
Delta-T
°C
Wind Press
QNH
hPa
Press
MSL
hPa
Rain
since 9 am
mm
Dir
 
Spd
km/h
Gust
km/h
Spd
kts
Gust
kts
30/05:30am 9.7 6.5 8.3 91 0.7 SE 15 17 8 9 1024.6 1024.3 0.0
30/05:00am 9.4 6.0 7.7 89 0.8 SE 15 15 8 8 1024.5 1024.2 0.0
30/04:30am 10.2 6.5 8.1 87 1.0 SE 17 19 9 10 1024.3 1024.0 0.0
30/04:00am 10.4 6.8 8.2 86 1.1 SE 17 17 9 9 1024.4 1024.1 0.0
30/03:30am 10.8 7.3 8.9 88 1.0 SE 17 19 9 10 1024.4 1024.1 0.0
30/03:00am 10.0 6.7 7.9 87 1.0 SE 15 17 8 9 1024.8 1024.5 0.0
30/02:30am 10.0 7.0 7.8 86 1.1 SSE 13 15 7 8 1025.3 1025.0 0.0
30/02:00am 11.0 8.2 8.6 85 1.2 SSE 13 15 7 8 1025.4 1025.1 0.0
30/01:30am 10.9 8.4 8.0 82 1.4 ESE 11 15 6 8 1025.4 1025.1 0.0
30/01:00am 12.0 9.3 8.8 81 1.6 ESE 13 15 7 8 1025.4 1025.1 0.0
30/12:30am 12.5 9.4 9.0 79 1.8 E 15 17 8 9 1025.9 1025.5 0.0
30/12:00am 12.3 9.5 8.6 78 1.9 ESE 13 15 7 8 1026.4 1026.1 0.0
 
Date/Time
EST
Temp
°C
App
Temp
°C
Dew
Point
Rel
Hum
%
Delta-T
°C
Wind Press
QNH
hPa
Press
MSL
hPa
Rain
since 9 am
mm
Dir
 
Spd
km/h
Gust
km/h
Spd
kts
Gust
kts
29/11:30pm 12.8 10.0 8.7 76 2.1 ESE 13 15 7 8 1026.5 1026.2 0.0
29/11:00pm 11.8 8.1 6.1 68 2.7 SE 15 17 8 9 1026.5 1026.2 0.0
29/10:30pm 14.1 10.9 8.5 69 2.8 ESE 15 17 8 9 1026.5 1026.2 0.0
29/10:00pm 13.1 9.6 5.5 60 3.6 ESE 13 15 7 8 1026.3 1026.0 0.0
29/09:30pm 14.0 10.7 4.6 53 4.4 E 11 13 6 7 1026.2 1025.8 0.0
29/09:00pm 14.4 10.4 2.9 46 5.2 E 13 15 7 8 1026.3 1026.0 0.0
29/08:30pm 15.1 11.0 2.0 41 5.9 ESE 13 15 7 8 1026.0 1025.6 0.0
29/08:00pm 14.8 10.2 1.7 41 5.8 ESE 15 19 8 10 1025.7 1025.4 0.0
29/07:30pm 15.1 10.6 2.0 41 5.9 SSE 15 17 8 9 1025.3 1025.0 0.0
29/07:00pm 17.4 12.7 3.3 39 6.6 SSE 17 19 9 10 1024.9 1024.6 0.0
29/06:30pm 16.4 11.9 2.4 39 6.4 SSE 15 17 8 9 1024.6 1024.3 0.0
29/06:00pm 18.6 13.7 2.0 33 7.6 SE 17 19 9 10 1024.4 1024.1 0.0
29/05:30pm 21.0 16.2 2.8 30 8.7 SE 17 24 9 13 1024.0 1023.7 0.0
29/05:00pm 22.3 17.0 2.9 28 9.3 SE 20 28 11 15 1023.9 1023.6 0.0
29/04:30pm 22.7 16.6 2.8 27 9.6 ESE 24 35 13 19 1023.8 1023.5 0.0
29/04:00pm 23.3 17.8 3.8 28 9.6 ESE 22 35 12 19 1023.7 1023.4 0.0
29/03:30pm 23.2 18.1 4.2 29 9.4 ESE 20 32 11 17 1023.7 1023.4 0.0
29/03:08pm 23.5 16.9 4.0 28 9.7 ESE 28 48 15 26 1023.8 1023.5 0.0
29/03:00pm 23.4 17.6 4.4 29 9.4 ESE 24 33 13 18 1023.9 1023.6 0.0
29/02:30pm 23.2 16.7 4.7 30 9.3 ESE 28 39 15 21 1024.1 1023.8 0.0
29/02:00pm 23.6 17.9 5.0 30 9.4 ESE 24 37 13 20 1024.4 1024.1 0.0
29/01:30pm 23.3 17.0 5.7 32 9.0 ESE 28 39 15 21 1024.7 1024.4 0.0
29/01:00pm 23.1 16.9 6.0 33 8.7 ESE 28 43 15 23 1025.2 1024.9 0.0
29/12:30pm 22.3 16.4 5.7 34 8.4 ESE 26 37 14 20 1026.1 1025.7 0.0
29/12:00pm 21.2 13.9 5.5 36 7.8 ESE 33 43 18 23 1026.7 1026.4 0.0
29/11:47am 21.6 15.3 5.9 36 8.0 ESE 28 46 15 25 1027.0 1026.7 0.0
29/11:30am 22.1 15.2 6.3 36 8.1 SE 32 43 17 23 1027.2 1026.9 0.0
29/11:00am 20.3 13.1 5.9 39 7.2 ESE 33 43 18 23 1027.6 1027.3 0.0
29/10:30am 19.3 12.1 6.1 42 6.6 ESE 33 46 18 25 1027.8 1027.5 0.0
29/10:00am 17.8 10.6 6.0 46 5.8 ESE 33 43 18 23 1028.2 1027.9 0.0
29/09:30am 16.6 8.6 5.9 49 5.2 ESE 37 44 20 24 1028.4 1028.1 0.0
29/09:00am 15.6 8.6 4.0 46 5.4 SE 30 37 16 20 1028.6 1028.3 0.0
29/08:30am 14.5 7.7 3.3 47 5.1 SE 28 39 15 21 1028.8 1028.5 0.0
29/08:00am 13.0 5.6 1.7 46 4.9 SE 30 39 16 21 1028.7 1028.4 0.0
29/07:30am 12.3 6.0 1.3 47 4.7 SE 24 30 13 16 1028.3 1028.0 0.0
29/07:00am 11.2 5.6 1.2 50 4.2 SE 20 26 11 14 1027.7 1027.4 0.0
29/06:30am 11.6 5.6 1.3 49 4.4 SE 22 30 12 16 1027.4 1027.1 0.0
29/06:00am 12.1 5.8 1.7 49 4.5 SE 24 33 13 18 1027.3 1027.0 0.0
29/05:30am 12.2 5.5 1.2 47 4.7 SE 26 33 14 18 1027.0 1026.7 0.0
29/05:00am 12.3 6.3 1.3 47 4.7 SE 22 30 12 16 1026.8 1026.5 0.0
29/04:30am 12.3 6.2 0.4 44 5.0 SE 22 28 12 15 1026.8 1026.5 0.0
29/04:00am 12.6 5.6 -0.3 41 5.3 SE 26 35 14 19 1026.7 1026.4 0.0
29/03:30am 12.7 5.2 -1.2 38 5.7 SE 28 35 15 19 1027.0 1026.7 0.0
29/03:00am 12.9 5.7 -1.8 36 5.9 SE 26 33 14 18 1027.0 1026.7 0.0
29/02:30am 13.0 6.2 -2.1 35 6.0 SE 24 33 13 18 1026.8 1026.5 0.0
29/02:00am 13.8 7.7 -2.2 33 6.4 SE 20 28 11 15 1026.9 1026.6 0.0
29/01:30am 13.5 7.0 -2.4 33 6.4 SE 22 28 12 15 1026.9 1026.6 0.0
29/01:00am 13.4 7.3 -2.5 33 6.3 SE 20 26 11 14 1027.1 1026.8 0.0
29/12:30am 14.1 8.2 -2.3 32 6.6 SE 19 24 10 13 1027.1 1026.8 0.0
29/12:00am 14.2 8.3 -2.2 32 6.6 SE 19 26 10 14 1027.3 1027.0 0.0
 
Date/Time
EST
Temp
°C
App
Temp
°C
Dew
Point
Rel
Hum
%
Delta-T
°C
Wind Press
QNH
hPa
Press
MSL
hPa
Rain
since 9 am
mm
Dir
 
Spd
km/h
Gust
km/h
Spd
kts
Gust
kts
28/11:30pm 14.5 8.6 -2.4 31 6.8 SE 19 22 10 12 1027.3 1027.0 0.0
28/11:00pm 14.9 8.8 -2.1 31 6.9 SE 20 28 11 15 1027.4 1027.1 0.0
28/10:30pm 14.3 8.8 -2.2 32 6.7 SE 17 20 9 11 1027.5 1027.2 0.0
28/10:00pm 13.5 8.3 -2.4 33 6.3 SE 15 20 8 11 1027.5 1027.2 0.0
28/09:30pm 14.1 8.9 -2.8 31 6.7 SE 15 17 8 9 1027.4 1027.1 0.0
28/09:00pm 14.5 9.0 -2.4 31 6.8 SE 17 19 9 10 1027.3 1027.0 0.0
28/08:30pm 13.8 8.7 -2.2 33 6.4 SE 15 17 8 9 1027.1 1026.8 0.0
28/08:00pm 15.5 10.0 -2.4 29 7.3 SE 17 19 9 10 1026.8 1026.5 0.0
28/07:30pm 16.8 11.3 -2.3 27 7.9 SE 17 22 9 12 1026.5 1026.2 0.0
28/07:00pm 17.9 12.8 -1.9 26 8.3 SE 15 19 8 10 1026.4 1026.1 0.0
28/06:30pm 17.7 12.5 -2.6 25 8.4 ESE 15 20 8 11 1026.1 1025.7 0.0
28/06:00pm 18.6 13.1 -2.3 24 8.8 ESE 17 20 9 11 1025.6 1025.3 0.0
28/05:30pm 20.2 14.2 -1.6 23 9.5 SE 20 28 11 15 1025.3 1025.0 0.0
28/05:00pm 21.1 14.9 -0.2 24 9.5 SE 22 30 12 16 1025.0 1024.7 0.0
28/04:30pm 21.7 15.4 -0.9 22 10.1 SE 22 30 12 16 1024.9 1024.6 0.0
28/04:00pm 21.5 14.9 -0.5 23 9.8 SE 24 33 13 18 1024.7 1024.4 0.0
28/03:30pm 22.4 15.9 0.3 23 10.1 SE 24 32 13 17 1024.5 1024.2 0.0
28/03:00pm 21.3 14.7 -0.1 24 9.6 SSE 24 35 13 19 1024.5 1024.2 0.0
28/02:30pm 21.7 15.6 0.3 24 9.8 SE 22 30 12 16 1024.7 1024.4 0.0
28/02:00pm 22.0 16.0 1.1 25 9.7 ESE 22 32 12 17 1024.8 1024.5 0.0
28/01:30pm 21.3 14.8 0.5 25 9.5 SE 24 33 13 18 1025.3 1025.0 0.0
28/01:00pm 20.9 14.5 1.2 27 9.0 SE 24 35 13 19 1026.0 1025.6 0.0
28/12:30pm 19.9 12.4 0.9 28 8.6 SE 30 39 16 21 1026.6 1026.3 0.0
28/12:00pm 18.4 10.7 0.1 29 8.0 SE 30 43 16 23 1027.2 1026.9 0.0
28/11:30am 17.7 10.1 0.4 31 7.6 ESE 30 41 16 22 1027.7 1027.4 0.0
28/11:00am 16.7 9.6 1.2 35 6.9 SE 28 39 15 21 1028.3 1028.0 0.0
28/10:30am 15.9 8.1 1.6 38 6.4 SE 32 39 17 21 1028.5 1028.2 0.0
28/10:12am 15.8 8.7 1.2 37 6.5 SE 28 46 15 25 1028.5 1028.2 0.0
28/10:00am 15.8 8.0 1.9 39 6.2 SE 32 39 17 21 1028.5 1028.2 0.0
28/09:30am 15.4 7.7 2.2 41 5.9 SE 32 41 17 22 1028.4 1028.1 0.0
28/09:00am 15.1 7.5 2.6 43 5.6 SE 32 41 17 22 1028.0 1027.7 0.0
28/08:30am 14.6 7.0 2.8 45 5.3 SE 32 39 17 21 1028.0 1027.7 0.0
28/08:00am 14.2 6.8 3.9 50 4.7 SE 32 44 17 24 1027.6 1027.3 0.0
28/07:30am 13.6 6.2 3.9 52 4.5 SE 32 44 17 24 1027.2 1026.9 0.0
28/07:00am 13.4 6.4 4.3 54 4.2 SE 30 41 16 22 1027.1 1026.8 0.0
28/06:30am 13.8 6.9 4.7 54 4.3 SE 30 41 16 22 1026.7 1026.4 0.0
28/06:00am 13.8 8.1 4.7 54 4.2 SE 24 33 13 18 1026.5 1026.2 0.0
28/05:30am 14.2 9.2 4.8 53 4.4 ESE 20 30 11 16 1026.0 1025.6 0.0
28/05:00am 14.7 8.6 4.7 51 4.7 SE 26 35 14 19 1025.4 1025.1 0.0
28/04:30am 14.8 9.5 5.1 52 4.6 SE 22 32 12 17 1025.2 1024.9 0.0
28/04:00am 15.3 9.6 4.9 50 4.9 SE 24 32 13 17 1025.1 1024.8 0.0
28/03:30am 15.8 10.1 4.8 48 5.2 SE 24 35 13 19 1025.0 1024.7 0.0
28/03:00am 16.2 10.5 4.9 47 5.4 SE 24 33 13 18 1025.0 1024.7 0.0
28/02:30am 16.5 11.6 4.9 46 5.6 SE 20 28 11 15 1024.9 1024.6 0.0
28/02:00am 17.2 11.5 4.9 44 5.9 SE 24 33 13 18 1025.1 1024.8 0.0
28/01:30am 17.6 11.8 4.5 42 6.3 SE 24 33 13 18 1025.3 1025.0 0.0
28/01:00am 18.4 11.9 4.9 41 6.5 SE 28 46 15 25 1025.4 1025.1 0.0
28/12:59am 18.5 12.0 4.7 40 6.7 SE 28 46 15 25 1025.4 1025.1 0.0
28/12:30am 18.8 12.3 4.9 40 6.8 SE 28 41 15 22 1025.0 1024.7 0.0
28/12:00am 19.1 13.9 5.6 41 6.7 SE 22 33 12 18 1025.0 1024.7 0.0
 
Date/Time
EST
Temp
°C
App
Temp
°C
Dew
Point
Rel
Hum
%
Delta-T
°C
Wind Press
QNH
hPa
Press
MSL
hPa
Rain
since 9 am
mm
Dir
 
Spd
km/h
Gust
km/h
Spd
kts
Gust
kts
27/11:30pm 19.4 14.3 5.8 41 6.8 SE 22 32 12 17 1024.9 1024.6 0.0
27/11:00pm 20.0 14.4 5.3 38 7.3 SE 24 30 13 16 1024.9 1024.6 0.0
27/10:30pm 20.9 14.5 5.3 36 7.8 SE 28 35 15 19 1024.8 1024.5 0.0
27/10:00pm 21.2 14.9 5.5 36 7.8 SE 28 39 15 21 1024.8 1024.5 0.0
27/09:30pm 22.0 15.6 5.4 34 8.4 SE 28 39 15 21 1024.8 1024.5 0.0
27/09:00pm 22.5 17.5 6.3 35 8.3 SSE 22 30 12 16 1024.6 1024.3 0.0
27/08:30pm 21.9 18.3 6.6 37 7.9 SSE 15 19 8 10 1024.2 1023.9 0.0
27/08:00pm 23.0 19.5 7.1 36 8.3 SSE 15 20 8 11 1023.9 1023.6 0.0
27/07:30pm 24.1 20.8 8.1 36 8.6 SSE 15 20 8 11 1023.4 1023.1 0.0
27/07:00pm 24.1 21.1 10.7 43 7.5 SE 17 19 9 10 1022.7 1022.4 0.0
27/06:30pm 25.0 22.0 10.8 41 8.0 ESE 17 20 9 11 1022.1 1021.7 0.0
27/06:00pm 25.8 22.5 10.8 39 8.5 ESE 19 24 10 13 1021.5 1021.1 0.0
27/05:30pm 26.9 23.6 11.0 37 9.1 E 19 24 10 13 1021.0 1020.7 0.0
27/05:00pm 27.8 24.6 11.4 36 9.5 ESE 19 26 10 14 1020.6 1020.3 0.0
27/04:30pm 28.5 25.4 11.6 35 9.8 ESE 19 24 10 13 1020.3 1020.0 0.0
27/04:00pm 28.7 25.6 11.7 35 9.9 ESE 19 26 10 14 1020.0 1019.7 0.0
27/03:30pm 28.6 26.3 11.6 34 9.9 SE 15 26 8 14 1020.0 1019.7 0.0
27/03:00pm 28.5 26.2 11.6 35 9.8 SE 15 22 8 12 1020.2 1019.9 0.0
27/02:30pm 28.6 26.0 12.1 36 9.7 SSE 17 30 9 16 1020.4 1020.1 0.0
27/02:00pm 28.1 24.9 12.0 36 9.4 ESE 20 26 11 14 1020.5 1020.2 0.0
27/01:30pm 27.8 24.8 11.8 37 9.3 ESE 19 28 10 15 1020.9 1020.6 0.0
27/01:00pm 27.5 24.5 11.9 38 9.1 SE 19 30 10 16 1021.5 1021.1 0.0
27/12:30pm 27.7 24.7 12.5 39 8.9 SE 20 32 11 17 1022.2 1021.8 0.0
27/12:00pm 27.2 23.8 12.4 40 8.6 SE 22 30 12 16 1022.7 1022.4 0.0
27/11:30am 26.8 23.9 12.8 42 8.2 SE 20 33 11 18 1023.3 1023.0 0.0
27/11:00am 25.4 21.7 12.6 45 7.4 ESE 24 35 13 19 1023.8 1023.5 0.0
27/10:30am 25.1 22.0 14.6 52 6.3 ESE 24 32 13 17 1024.1 1023.8 0.0
27/10:00am 23.4 19.9 14.4 57 5.3 SE 26 35 14 19 1024.5 1024.2 0.0
27/09:30am 22.3 18.8 14.4 61 4.7 SE 26 35 14 19 1024.9 1024.6 0.0
27/09:00am 22.2 20.1 16.2 69 3.6 SE 22 28 12 15 1025.1 1024.8 0.0
27/08:40am 20.8 20.8 17.2 80 2.2 ESE 13 19 7 10 1024.9 1024.6 0.0
27/08:30am 19.4 19.3 17.0 86 1.5 ESE 13 17 7 9 1024.8 1024.5 0.0
27/08:21am 18.6 18.5 16.9 90 1.0 ESE 13 17 7 9 1024.8 1024.5 0.0
27/08:17am 18.2 18.1 16.9 92 0.8 SE 13 17 7 9 1024.8 1024.5 0.0
27/08:00am 17.3 17.1 16.7 96 0.4 ESE 13 17 7 9 1024.7 1024.4 0.0
27/07:46am 16.9 15.2 16.3 96 0.4 SE 20 24 11 13 1024.6 1024.3 0.0
27/07:30am 16.7 15.1 15.9 95 0.5 SE 19 22 10 12 1024.5 1024.2 0.0
27/07:08am 16.4 15.0 15.6 95 0.5 SE 17 20 9 11 1024.3 1024.0 0.0
27/07:00am 16.4 15.3 15.3 93 0.6 SE 15 20 8 11 1024.2 1023.9 0.0
27/06:57am 16.2 14.9 14.9 92 0.8 SE 15 19 8 10 1024.1 1023.8 0.0
27/06:30am 16.3 14.7 14.0 86 1.3 SE 15 20 8 11 1023.7 1023.4 0.0
27/06:00am 15.2 14.3 12.5 84 1.5 ESE 9 11 5 6 1023.2 1022.9 0.0

Other Formats:

Comma delimited format used in spreadsheet applications
http://www.bom.gov.au/fwo/IDQ60801/IDQ60801.94397.axf

JavaScript Object Notation format (JSON) in row-major order
http://www.bom.gov.au/fwo/IDQ60801/IDQ60801.94397.json